sensor_id;sensor_type;location;lat;lon;timestamp;P1;durP1;ratioP1;P2;durP2;ratioP2
20697;SDS011;10508;50.956;4.640;2023-04-12T00:00:59;4.80;;;0.95;;
20697;SDS011;10508;50.956;4.640;2023-04-12T00:03:25;3.75;;;0.70;;
20697;SDS011;10508;50.956;4.640;2023-04-12T00:05:51;1.92;;;0.57;;
20697;SDS011;10508;50.956;4.640;2023-04-12T00:08:20;0.90;;;0.40;;
20697;SDS011;10508;50.956;4.640;2023-04-12T00:10:50;1.15;;;0.68;;
20697;SDS011;10508;50.956;4.640;2023-04-12T00:13:16;2.75;;;0.70;;
20697;SDS011;10508;50.956;4.640;2023-04-12T00:15:42;0.57;;;0.30;;
20697;SDS011;10508;50.956;4.640;2023-04-12T00:18:08;5.18;;;0.73;;
20697;SDS011;10508;50.956;4.640;2023-04-12T00:20:34;4.25;;;0.47;;
20697;SDS011;10508;50.956;4.640;2023-04-12T00:22:59;1.17;;;0.45;;
20697;SDS011;10508;50.956;4.640;2023-04-12T00:25:25;3.58;;;0.80;;
20697;SDS011;10508;50.956;4.640;2023-04-12T00:27:50;4.05;;;0.70;;
20697;SDS011;10508;50.956;4.640;2023-04-12T00:30:16;2.65;;;0.57;;
20697;SDS011;10508;50.956;4.640;2023-04-12T00:32:42;3.33;;;0.70;;
20697;SDS011;10508;50.956;4.640;2023-04-12T00:35:07;5.15;;;0.70;;
20697;SDS011;10508;50.956;4.640;2023-04-12T00:37:33;4.13;;;0.68;;
20697;SDS011;10508;50.956;4.640;2023-04-12T00:40:00;2.25;;;0.40;;
20697;SDS011;10508;50.956;4.640;2023-04-12T00:42:26;5.63;;;0.43;;
20697;SDS011;10508;50.956;4.640;2023-04-12T00:44:52;3.42;;;0.73;;
20697;SDS011;10508;50.956;4.640;2023-04-12T00:47:18;1.73;;;0.68;;
20697;SDS011;10508;50.956;4.640;2023-04-12T00:49:43;2.70;;;0.50;;
20697;SDS011;10508;50.956;4.640;2023-04-12T00:52:09;1.90;;;0.60;;
20697;SDS011;10508;50.956;4.640;2023-04-12T00:54:38;1.75;;;1.27;;
20697;SDS011;10508;50.956;4.640;2023-04-12T00:57:04;3.95;;;0.70;;
20697;SDS011;10508;50.956;4.640;2023-04-12T00:59:31;1.02;;;0.70;;
20697;SDS011;10508;50.956;4.640;2023-04-12T01:01:57;2.60;;;0.70;;
20697;SDS011;10508;50.956;4.640;2023-04-12T01:04:24;3.63;;;0.55;;
20697;SDS011;10508;50.956;4.640;2023-04-12T01:17:29;2.05;;;0.57;;
20697;SDS011;10508;50.956;4.640;2023-04-12T01:20:06;1.90;;;0.68;;
20697;SDS011;10508;50.956;4.640;2023-04-12T01:28:26;1.67;;;0.60;;
20697;SDS011;10508;50.956;4.640;2023-04-12T01:30:57;0.57;;;0.40;;
20697;SDS011;10508;50.956;4.640;2023-04-12T01:33:25;1.23;;;0.60;;
20697;SDS011;10508;50.956;4.640;2023-04-12T01:35:55;1.60;;;0.60;;
20697;SDS011;10508;50.956;4.640;2023-04-12T01:38:24;1.90;;;0.60;;
20697;SDS011;10508;50.956;4.640;2023-04-12T01:40:50;1.35;;;0.63;;
20697;SDS011;10508;50.956;4.640;2023-04-12T01:43:16;0.77;;;0.50;;
20697;SDS011;10508;50.956;4.640;2023-04-12T01:45:42;2.13;;;0.68;;
20697;SDS011;10508;50.956;4.640;2023-04-12T01:48:08;2.38;;;0.60;;
20697;SDS011;10508;50.956;4.640;2023-04-12T01:50:53;2.50;;;0.80;;
20697;SDS011;10508;50.956;4.640;2023-04-12T01:54:07;8.27;;;0.70;;
20697;SDS011;10508;50.956;4.640;2023-04-12T01:56:16;1.58;;;0.80;;
20697;SDS011;10508;50.956;4.640;2023-04-12T01:58:46;0.80;;;0.50;;
20697;SDS011;10508;50.956;4.640;2023-04-12T02:01:14;0.52;;;0.40;;
20697;SDS011;10508;50.956;4.640;2023-04-12T02:03:43;2.58;;;0.63;;
20697;SDS011;10508;50.956;4.640;2023-04-12T02:06:10;1.67;;;0.50;;
20697;SDS011;10508;50.956;4.640;2023-04-12T02:08:36;5.13;;;0.80;;
20697;SDS011;10508;50.956;4.640;2023-04-12T02:11:08;2.95;;;0.57;;
20697;SDS011;10508;50.956;4.640;2023-04-12T02:13:35;3.40;;;0.65;;
20697;SDS011;10508;50.956;4.640;2023-04-12T02:16:01;0.40;;;0.35;;
20697;SDS011;10508;50.956;4.640;2023-04-12T02:18:26;0.88;;;0.47;;
20697;SDS011;10508;50.956;4.640;2023-04-12T02:20:52;1.13;;;0.47;;
20697;SDS011;10508;50.956;4.640;2023-04-12T02:23:18;2.08;;;0.65;;
20697;SDS011;10508;50.956;4.640;2023-04-12T02:25:44;2.70;;;0.75;;
20697;SDS011;10508;50.956;4.640;2023-04-12T02:28:10;0.50;;;0.50;;
20697;SDS011;10508;50.956;4.640;2023-04-12T02:30:37;4.22;;;0.60;;
20697;SDS011;10508;50.956;4.640;2023-04-12T02:33:03;1.83;;;0.70;;
20697;SDS011;10508;50.956;4.640;2023-04-12T02:35:30;1.77;;;0.77;;
20697;SDS011;10508;50.956;4.640;2023-04-12T02:37:56;0.82;;;0.40;;
20697;SDS011;10508;50.956;4.640;2023-04-12T02:40:22;9.32;;;0.85;;
20697;SDS011;10508;50.956;4.640;2023-04-12T02:42:47;1.77;;;0.80;;
20697;SDS011;10508;50.956;4.640;2023-04-12T02:45:13;2.45;;;0.88;;
20697;SDS011;10508;50.956;4.640;2023-04-12T02:47:39;1.73;;;0.60;;
20697;SDS011;10508;50.956;4.640;2023-04-12T02:50:05;1.80;;;0.60;;
20697;SDS011;10508;50.956;4.640;2023-04-12T02:52:31;1.38;;;0.60;;
20697;SDS011;10508;50.956;4.640;2023-04-12T02:54:57;2.15;;;0.60;;
20697;SDS011;10508;50.956;4.640;2023-04-12T02:57:23;2.40;;;0.60;;
20697;SDS011;10508;50.956;4.640;2023-04-12T02:59:52;1.23;;;0.52;;
20697;SDS011;10508;50.956;4.640;2023-04-12T03:02:18;2.30;;;0.80;;
20697;SDS011;10508;50.956;4.640;2023-04-12T03:04:45;3.60;;;0.68;;
20697;SDS011;10508;50.956;4.640;2023-04-12T03:07:17;2.22;;;0.52;;
20697;SDS011;10508;50.956;4.640;2023-04-12T03:09:44;3.83;;;0.70;;
20697;SDS011;10508;50.956;4.640;2023-04-12T03:12:11;1.38;;;0.70;;
20697;SDS011;10508;50.956;4.640;2023-04-12T03:14:38;1.00;;;0.70;;
20697;SDS011;10508;50.956;4.640;2023-04-12T03:17:04;1.08;;;0.60;;
20697;SDS011;10508;50.956;4.640;2023-04-12T03:19:31;1.98;;;0.55;;
20697;SDS011;10508;50.956;4.640;2023-04-12T03:21:59;1.90;;;0.90;;
20697;SDS011;10508;50.956;4.640;2023-04-12T03:24:25;0.40;;;0.25;;
20697;SDS011;10508;50.956;4.640;2023-04-12T03:26:53;2.75;;;0.93;;
20697;SDS011;10508;50.956;4.640;2023-04-12T03:29:19;1.33;;;0.63;;
20697;SDS011;10508;50.956;4.640;2023-04-12T03:31:46;3.75;;;0.63;;
20697;SDS011;10508;50.956;4.640;2023-04-12T03:34:11;0.55;;;0.45;;
20697;SDS011;10508;50.956;4.640;2023-04-12T03:36:37;0.90;;;0.50;;
20697;SDS011;10508;50.956;4.640;2023-04-12T03:39:03;1.33;;;0.80;;
20697;SDS011;10508;50.956;4.640;2023-04-12T03:41:28;1.67;;;0.98;;
20697;SDS011;10508;50.956;4.640;2023-04-12T03:43:54;1.00;;;0.38;;
20697;SDS011;10508;50.956;4.640;2023-04-12T03:46:20;4.13;;;0.63;;
20697;SDS011;10508;50.956;4.640;2023-04-12T03:48:46;2.25;;;0.73;;
20697;SDS011;10508;50.956;4.640;2023-04-12T03:51:13;4.15;;;0.75;;
20697;SDS011;10508;50.956;4.640;2023-04-12T03:53:39;0.63;;;0.40;;
20697;SDS011;10508;50.956;4.640;2023-04-12T03:56:05;1.02;;;0.73;;
20697;SDS011;10508;50.956;4.640;2023-04-12T03:58:31;4.22;;;0.90;;
20697;SDS011;10508;50.956;4.640;2023-04-12T04:01:03;1.85;;;0.70;;
20697;SDS011;10508;50.956;4.640;2023-04-12T04:03:30;2.95;;;0.85;;
20697;SDS011;10508;50.956;4.640;2023-04-12T04:05:58;4.05;;;0.93;;
20697;SDS011;10508;50.956;4.640;2023-04-12T04:08:27;2.78;;;0.60;;
20697;SDS011;10508;50.956;4.640;2023-04-12T04:10:57;4.18;;;0.70;;
20697;SDS011;10508;50.956;4.640;2023-04-12T04:13:23;2.13;;;0.60;;
20697;SDS011;10508;50.956;4.640;2023-04-12T04:15:50;4.45;;;0.60;;
20697;SDS011;10508;50.956;4.640;2023-04-12T04:18:22;0.82;;;0.38;;
20697;SDS011;10508;50.956;4.640;2023-04-12T04:20:48;1.83;;;0.75;;
20697;SDS011;10508;50.956;4.640;2023-04-12T04:23:14;1.38;;;0.55;;
20697;SDS011;10508;50.956;4.640;2023-04-12T04:25:41;0.95;;;0.43;;
20697;SDS011;10508;50.956;4.640;2023-04-12T04:28:07;0.70;;;0.52;;
20697;SDS011;10508;50.956;4.640;2023-04-12T04:30:33;2.92;;;0.60;;
20697;SDS011;10508;50.956;4.640;2023-04-12T04:33:02;2.55;;;0.60;;
20697;SDS011;10508;50.956;4.640;2023-04-12T04:35:29;0.88;;;0.47;;
20697;SDS011;10508;50.956;4.640;2023-04-12T04:37:55;4.65;;;1.00;;
20697;SDS011;10508;50.956;4.640;2023-04-12T04:40:21;3.47;;;0.60;;
20697;SDS011;10508;50.956;4.640;2023-04-12T04:42:49;4.15;;;0.40;;
20697;SDS011;10508;50.956;4.640;2023-04-12T04:45:20;1.65;;;0.47;;
20697;SDS011;10508;50.956;4.640;2023-04-12T04:47:50;2.80;;;0.55;;
20697;SDS011;10508;50.956;4.640;2023-04-12T04:50:23;3.65;;;0.43;;
20697;SDS011;10508;50.956;4.640;2023-04-12T04:52:49;3.10;;;0.73;;
20697;SDS011;10508;50.956;4.640;2023-04-12T04:55:15;0.85;;;0.50;;
20697;SDS011;10508;50.956;4.640;2023-04-12T04:57:48;1.70;;;0.52;;
20697;SDS011;10508;50.956;4.640;2023-04-12T05:00:14;1.20;;;0.30;;
20697;SDS011;10508;50.956;4.640;2023-04-12T05:02:41;0.57;;;0.43;;
20697;SDS011;10508;50.956;4.640;2023-04-12T05:05:10;0.73;;;0.40;;
20697;SDS011;10508;50.956;4.640;2023-04-12T05:07:37;0.55;;;0.30;;
20697;SDS011;10508;50.956;4.640;2023-04-12T05:10:03;3.58;;;0.65;;
20697;SDS011;10508;50.956;4.640;2023-04-12T05:12:29;2.97;;;0.60;;
20697;SDS011;10508;50.956;4.640;2023-04-12T05:14:56;0.50;;;0.40;;
20697;SDS011;10508;50.956;4.640;2023-04-12T05:17:22;4.30;;;0.60;;
20697;SDS011;10508;50.956;4.640;2023-04-12T05:19:47;2.05;;;0.60;;
20697;SDS011;10508;50.956;4.640;2023-04-12T05:22:13;3.88;;;0.50;;
20697;SDS011;10508;50.956;4.640;2023-04-12T05:24:44;0.70;;;0.60;;
20697;SDS011;10508;50.956;4.640;2023-04-12T05:27:10;1.33;;;0.63;;
20697;SDS011;10508;50.956;4.640;2023-04-12T05:29:35;1.02;;;0.57;;
20697;SDS011;10508;50.956;4.640;2023-04-12T05:32:01;0.85;;;0.50;;
20697;SDS011;10508;50.956;4.640;2023-04-12T05:34:27;1.85;;;0.40;;
20697;SDS011;10508;50.956;4.640;2023-04-12T05:36:52;3.30;;;0.98;;
20697;SDS011;10508;50.956;4.640;2023-04-12T05:39:18;1.73;;;0.70;;
20697;SDS011;10508;50.956;4.640;2023-04-12T05:41:43;1.02;;;0.60;;
20697;SDS011;10508;50.956;4.640;2023-04-12T05:44:09;3.50;;;1.00;;
20697;SDS011;10508;50.956;4.640;2023-04-12T05:46:35;2.42;;;0.90;;
20697;SDS011;10508;50.956;4.640;2023-04-12T05:49:00;3.60;;;0.77;;
20697;SDS011;10508;50.956;4.640;2023-04-12T05:51:26;1.98;;;0.82;;
20697;SDS011;10508;50.956;4.640;2023-04-12T05:53:51;2.42;;;0.98;;
20697;SDS011;10508;50.956;4.640;2023-04-12T05:56:17;2.33;;;0.80;;
20697;SDS011;10508;50.956;4.640;2023-04-12T05:58:42;1.73;;;0.70;;
20697;SDS011;10508;50.956;4.640;2023-04-12T06:01:08;1.83;;;0.68;;
20697;SDS011;10508;50.956;4.640;2023-04-12T06:03:34;0.75;;;0.43;;
20697;SDS011;10508;50.956;4.640;2023-04-12T06:06:00;1.33;;;0.57;;
20697;SDS011;10508;50.956;4.640;2023-04-12T06:08:26;3.05;;;0.70;;
20697;SDS011;10508;50.956;4.640;2023-04-12T06:10:53;3.35;;;0.50;;
20697;SDS011;10508;50.956;4.640;2023-04-12T06:13:19;1.98;;;0.75;;
20697;SDS011;10508;50.956;4.640;2023-04-12T06:15:45;5.65;;;1.08;;
20697;SDS011;10508;50.956;4.640;2023-04-12T06:18:11;2.85;;;1.35;;
20697;SDS011;10508;50.956;4.640;2023-04-12T06:20:39;1.60;;;0.80;;
20697;SDS011;10508;50.956;4.640;2023-04-12T06:23:05;2.72;;;1.30;;
20697;SDS011;10508;50.956;4.640;2023-04-12T06:25:31;2.40;;;0.93;;
20697;SDS011;10508;50.956;4.640;2023-04-12T06:27:57;3.40;;;0.70;;
20697;SDS011;10508;50.956;4.640;2023-04-12T06:30:23;2.67;;;0.80;;
20697;SDS011;10508;50.956;4.640;2023-04-12T06:32:48;3.40;;;0.93;;
20697;SDS011;10508;50.956;4.640;2023-04-12T06:35:14;7.00;;;1.40;;
20697;SDS011;10508;50.956;4.640;2023-04-12T06:37:40;7.75;;;1.73;;
20697;SDS011;10508;50.956;4.640;2023-04-12T06:40:06;3.60;;;0.95;;
20697;SDS011;10508;50.956;4.640;2023-04-12T06:42:32;4.25;;;0.90;;
20697;SDS011;10508;50.956;4.640;2023-04-12T06:44:58;3.13;;;0.95;;
20697;SDS011;10508;50.956;4.640;2023-04-12T06:47:24;6.45;;;1.10;;
20697;SDS011;10508;50.956;4.640;2023-04-12T06:49:49;2.03;;;0.80;;
20697;SDS011;10508;50.956;4.640;2023-04-12T06:52:22;1.50;;;0.80;;
20697;SDS011;10508;50.956;4.640;2023-04-12T06:54:50;4.22;;;1.27;;
20697;SDS011;10508;50.956;4.640;2023-04-12T06:57:16;7.18;;;1.27;;
20697;SDS011;10508;50.956;4.640;2023-04-12T06:59:42;11.07;;;1.25;;
20697;SDS011;10508;50.956;4.640;2023-04-12T07:02:07;8.38;;;1.85;;
20697;SDS011;10508;50.956;4.640;2023-04-12T07:04:33;8.45;;;1.55;;
20697;SDS011;10508;50.956;4.640;2023-04-12T07:06:59;5.80;;;1.60;;
20697;SDS011;10508;50.956;4.640;2023-04-12T07:09:25;6.05;;;1.25;;
20697;SDS011;10508;50.956;4.640;2023-04-12T07:11:50;3.97;;;1.30;;
20697;SDS011;10508;50.956;4.640;2023-04-12T07:14:16;3.70;;;1.08;;
20697;SDS011;10508;50.956;4.640;2023-04-12T07:16:42;2.22;;;1.05;;
20697;SDS011;10508;50.956;4.640;2023-04-12T07:19:08;7.28;;;1.27;;
20697;SDS011;10508;50.956;4.640;2023-04-12T07:21:33;5.95;;;1.65;;
20697;SDS011;10508;50.956;4.640;2023-04-12T07:23:59;8.00;;;1.20;;
20697;SDS011;10508;50.956;4.640;2023-04-12T07:26:25;6.70;;;1.25;;
20697;SDS011;10508;50.956;4.640;2023-04-12T07:28:51;7.38;;;1.77;;
20697;SDS011;10508;50.956;4.640;2023-04-12T07:31:16;13.02;;;1.90;;
20697;SDS011;10508;50.956;4.640;2023-04-12T07:33:42;4.00;;;0.70;;
20697;SDS011;10508;50.956;4.640;2023-04-12T07:36:08;2.45;;;0.90;;
20697;SDS011;10508;50.956;4.640;2023-04-12T07:38:34;9.35;;;1.40;;
20697;SDS011;10508;50.956;4.640;2023-04-12T07:41:00;11.77;;;1.48;;
20697;SDS011;10508;50.956;4.640;2023-04-12T07:43:26;9.95;;;1.17;;
20697;SDS011;10508;50.956;4.640;2023-04-12T07:45:54;9.63;;;1.88;;
20697;SDS011;10508;50.956;4.640;2023-04-12T07:48:20;4.25;;;1.00;;
20697;SDS011;10508;50.956;4.640;2023-04-12T07:50:46;3.25;;;1.13;;
20697;SDS011;10508;50.956;4.640;2023-04-12T07:53:22;5.50;;;1.48;;
20697;SDS011;10508;50.956;4.640;2023-04-12T07:55:49;2.65;;;0.93;;
20697;SDS011;10508;50.956;4.640;2023-04-12T07:58:15;6.85;;;1.65;;
20697;SDS011;10508;50.956;4.640;2023-04-12T08:00:42;4.65;;;0.98;;
20697;SDS011;10508;50.956;4.640;2023-04-12T08:03:10;3.03;;;1.00;;
20697;SDS011;10508;50.956;4.640;2023-04-12T08:05:36;6.78;;;1.25;;
20697;SDS011;10508;50.956;4.640;2023-04-12T08:08:02;8.75;;;0.90;;
20697;SDS011;10508;50.956;4.640;2023-04-12T08:10:29;4.53;;;1.40;;
20697;SDS011;10508;50.956;4.640;2023-04-12T08:12:55;9.45;;;1.15;;
20697;SDS011;10508;50.956;4.640;2023-04-12T08:15:21;4.78;;;0.80;;
20697;SDS011;10508;50.956;4.640;2023-04-12T08:17:47;6.82;;;1.35;;
20697;SDS011;10508;50.956;4.640;2023-04-12T08:20:12;6.97;;;1.35;;
20697;SDS011;10508;50.956;4.640;2023-04-12T08:22:40;7.82;;;1.73;;
20697;SDS011;10508;50.956;4.640;2023-04-12T08:25:06;10.63;;;1.38;;
20697;SDS011;10508;50.956;4.640;2023-04-12T08:27:32;11.43;;;1.60;;
20697;SDS011;10508;50.956;4.640;2023-04-12T08:29:58;17.30;;;1.35;;
20697;SDS011;10508;50.956;4.640;2023-04-12T08:32:24;11.13;;;1.55;;
20697;SDS011;10508;50.956;4.640;2023-04-12T08:34:50;12.82;;;1.77;;
20697;SDS011;10508;50.956;4.640;2023-04-12T08:37:16;8.88;;;1.58;;
20697;SDS011;10508;50.956;4.640;2023-04-12T08:39:42;8.45;;;1.63;;
20697;SDS011;10508;50.956;4.640;2023-04-12T08:42:07;10.25;;;1.98;;
20697;SDS011;10508;50.956;4.640;2023-04-12T08:44:34;15.05;;;1.77;;
20697;SDS011;10508;50.956;4.640;2023-04-12T08:47:05;10.50;;;1.33;;
20697;SDS011;10508;50.956;4.640;2023-04-12T08:49:32;15.07;;;1.83;;
20697;SDS011;10508;50.956;4.640;2023-04-12T08:52:02;8.35;;;1.67;;
20697;SDS011;10508;50.956;4.640;2023-04-12T08:54:30;9.10;;;1.50;;
20697;SDS011;10508;50.956;4.640;2023-04-12T08:56:57;13.50;;;2.13;;
20697;SDS011;10508;50.956;4.640;2023-04-12T08:59:28;10.50;;;1.65;;
20697;SDS011;10508;50.956;4.640;2023-04-12T09:01:56;8.77;;;1.75;;
20697;SDS011;10508;50.956;4.640;2023-04-12T09:04:23;17.25;;;1.77;;
20697;SDS011;10508;50.956;4.640;2023-04-12T09:06:50;6.45;;;1.15;;
20697;SDS011;10508;50.956;4.640;2023-04-12T09:09:16;8.05;;;1.60;;
20697;SDS011;10508;50.956;4.640;2023-04-12T09:11:41;7.97;;;1.77;;
20697;SDS011;10508;50.956;4.640;2023-04-12T09:14:24;8.52;;;1.92;;
20697;SDS011;10508;50.956;4.640;2023-04-12T09:16:50;11.98;;;2.08;;
20697;SDS011;10508;50.956;4.640;2023-04-12T09:19:22;13.63;;;1.90;;
20697;SDS011;10508;50.956;4.640;2023-04-12T09:21:58;13.20;;;2.00;;
20697;SDS011;10508;50.956;4.640;2023-04-12T09:24:24;9.75;;;1.83;;
20697;SDS011;10508;50.956;4.640;2023-04-12T09:27:05;17.58;;;2.47;;
20697;SDS011;10508;50.956;4.640;2023-04-12T09:29:31;11.60;;;1.73;;
20697;SDS011;10508;50.956;4.640;2023-04-12T09:32:04;14.55;;;2.15;;
20697;SDS011;10508;50.956;4.640;2023-04-12T09:34:31;14.85;;;2.22;;
20697;SDS011;10508;50.956;4.640;2023-04-12T09:37:16;12.32;;;1.92;;
20697;SDS011;10508;50.956;4.640;2023-04-12T09:39:42;19.48;;;3.05;;
20697;SDS011;10508;50.956;4.640;2023-04-12T09:42:11;14.75;;;2.35;;
20697;SDS011;10508;50.956;4.640;2023-04-12T09:44:38;13.23;;;1.65;;
20697;SDS011;10508;50.956;4.640;2023-04-12T09:47:04;16.27;;;2.35;;
20697;SDS011;10508;50.956;4.640;2023-04-12T09:49:49;5.15;;;1.45;;
20697;SDS011;10508;50.956;4.640;2023-04-12T09:52:15;9.82;;;1.30;;
20697;SDS011;10508;50.956;4.640;2023-04-12T09:54:43;8.07;;;1.38;;
20697;SDS011;10508;50.956;4.640;2023-04-12T09:57:11;6.72;;;1.50;;
20697;SDS011;10508;50.956;4.640;2023-04-12T09:59:40;14.35;;;1.80;;
20697;SDS011;10508;50.956;4.640;2023-04-12T10:04:46;5.13;;;1.52;;
20697;SDS011;10508;50.956;4.640;2023-04-12T10:07:13;12.45;;;2.42;;
20697;SDS011;10508;50.956;4.640;2023-04-12T10:09:39;9.48;;;1.65;;
20697;SDS011;10508;50.956;4.640;2023-04-12T10:12:06;14.02;;;2.15;;
20697;SDS011;10508;50.956;4.640;2023-04-12T10:14:33;6.22;;;1.50;;
20697;SDS011;10508;50.956;4.640;2023-04-12T10:17:00;13.38;;;1.80;;
20697;SDS011;10508;50.956;4.640;2023-04-12T10:19:28;10.15;;;2.00;;
20697;SDS011;10508;50.956;4.640;2023-04-12T10:21:55;15.95;;;1.90;;
20697;SDS011;10508;50.956;4.640;2023-04-12T10:24:22;5.80;;;1.55;;
20697;SDS011;10508;50.956;4.640;2023-04-12T10:26:52;9.80;;;1.60;;
20697;SDS011;10508;50.956;4.640;2023-04-12T10:29:30;12.23;;;1.23;;
20697;SDS011;10508;50.956;4.640;2023-04-12T10:32:17;9.98;;;1.30;;
20697;SDS011;10508;50.956;4.640;2023-04-12T10:34:49;9.23;;;1.65;;
20697;SDS011;10508;50.956;4.640;2023-04-12T10:40:24;5.15;;;1.52;;
20697;SDS011;10508;50.956;4.640;2023-04-12T10:43:22;9.50;;;1.67;;
20697;SDS011;10508;50.956;4.640;2023-04-12T10:45:44;10.05;;;2.40;;
20697;SDS011;10508;50.956;4.640;2023-04-12T10:53:41;12.63;;;1.27;;
20697;SDS011;10508;50.956;4.640;2023-04-12T10:58:59;5.55;;;0.90;;
20697;SDS011;10508;50.956;4.640;2023-04-12T11:01:26;11.88;;;1.50;;
20697;SDS011;10508;50.956;4.640;2023-04-12T11:11:46;8.50;;;1.20;;
20697;SDS011;10508;50.956;4.640;2023-04-12T11:14:16;8.48;;;1.08;;
20697;SDS011;10508;50.956;4.640;2023-04-12T11:19:30;13.25;;;1.52;;
20697;SDS011;10508;50.956;4.640;2023-04-12T11:22:04;14.30;;;1.52;;
20697;SDS011;10508;50.956;4.640;2023-04-12T11:24:31;9.50;;;1.48;;
20697;SDS011;10508;50.956;4.640;2023-04-12T11:26:57;13.32;;;1.73;;
20697;SDS011;10508;50.956;4.640;2023-04-12T11:29:24;7.13;;;1.48;;
20697;SDS011;10508;50.956;4.640;2023-04-12T11:31:50;10.68;;;1.90;;
20697;SDS011;10508;50.956;4.640;2023-04-12T11:34:16;10.82;;;1.55;;
20697;SDS011;10508;50.956;4.640;2023-04-12T11:36:45;13.63;;;1.75;;
20697;SDS011;10508;50.956;4.640;2023-04-12T11:39:12;8.68;;;1.50;;
20697;SDS011;10508;50.956;4.640;2023-04-12T11:41:44;12.60;;;1.80;;
20697;SDS011;10508;50.956;4.640;2023-04-12T11:44:14;21.05;;;2.10;;
20697;SDS011;10508;50.956;4.640;2023-04-12T11:46:43;12.27;;;1.67;;
20697;SDS011;10508;50.956;4.640;2023-04-12T11:49:13;8.48;;;1.45;;
20697;SDS011;10508;50.956;4.640;2023-04-12T11:51:40;22.73;;;2.28;;
20697;SDS011;10508;50.956;4.640;2023-04-12T11:54:06;13.95;;;1.60;;
20697;SDS011;10508;50.956;4.640;2023-04-12T11:56:32;11.98;;;2.22;;
20697;SDS011;10508;50.956;4.640;2023-04-12T11:58:58;9.48;;;1.38;;
20697;SDS011;10508;50.956;4.640;2023-04-12T12:01:23;14.77;;;2.00;;
20697;SDS011;10508;50.956;4.640;2023-04-12T12:03:51;5.38;;;0.93;;
20697;SDS011;10508;50.956;4.640;2023-04-12T12:06:17;7.32;;;1.05;;
20697;SDS011;10508;50.956;4.640;2023-04-12T12:08:45;7.45;;;1.08;;
20697;SDS011;10508;50.956;4.640;2023-04-12T12:11:10;2.55;;;0.45;;
20697;SDS011;10508;50.956;4.640;2023-04-12T12:13:46;6.47;;;0.80;;
20697;SDS011;10508;50.956;4.640;2023-04-12T12:16:16;6.88;;;0.90;;
20697;SDS011;10508;50.956;4.640;2023-04-12T12:18:43;11.98;;;0.93;;
20697;SDS011;10508;50.956;4.640;2023-04-12T12:21:10;5.65;;;1.40;;
20697;SDS011;10508;50.956;4.640;2023-04-12T12:23:37;4.88;;;1.10;;
20697;SDS011;10508;50.956;4.640;2023-04-12T12:26:06;2.42;;;0.77;;
20697;SDS011;10508;50.956;4.640;2023-04-12T12:28:38;6.90;;;0.90;;
20697;SDS011;10508;50.956;4.640;2023-04-12T12:31:04;1.30;;;0.60;;
20697;SDS011;10508;50.956;4.640;2023-04-12T12:33:37;0.85;;;0.40;;
20697;SDS011;10508;50.956;4.640;2023-04-12T12:36:04;5.15;;;0.50;;
20697;SDS011;10508;50.956;4.640;2023-04-12T12:38:37;7.75;;;0.80;;
20697;SDS011;10508;50.956;4.640;2023-04-12T12:41:13;2.20;;;0.32;;
20697;SDS011;10508;50.956;4.640;2023-04-12T12:43:46;2.30;;;0.35;;
20697;SDS011;10508;50.956;4.640;2023-04-12T12:46:14;4.55;;;0.40;;
20697;SDS011;10508;50.956;4.640;2023-04-12T12:48:41;2.05;;;0.60;;
20697;SDS011;10508;50.956;4.640;2023-04-12T12:51:08;2.03;;;0.63;;
20697;SDS011;10508;50.956;4.640;2023-04-12T12:53:35;1.75;;;0.82;;
20697;SDS011;10508;50.956;4.640;2023-04-12T12:56:02;3.33;;;0.90;;
20697;SDS011;10508;50.956;4.640;2023-04-12T12:58:28;6.13;;;1.10;;
20697;SDS011;10508;50.956;4.640;2023-04-12T13:00:54;6.53;;;1.05;;
20697;SDS011;10508;50.956;4.640;2023-04-12T13:03:20;9.00;;;1.23;;
20697;SDS011;10508;50.956;4.640;2023-04-12T13:05:45;6.47;;;0.90;;
20697;SDS011;10508;50.956;4.640;2023-04-12T13:08:11;4.97;;;0.70;;
20697;SDS011;10508;50.956;4.640;2023-04-12T13:10:37;1.88;;;0.50;;
20697;SDS011;10508;50.956;4.640;2023-04-12T13:13:03;5.18;;;1.05;;
20697;SDS011;10508;50.956;4.640;2023-04-12T13:15:28;3.78;;;0.75;;
20697;SDS011;10508;50.956;4.640;2023-04-12T13:17:54;3.50;;;0.55;;
20697;SDS011;10508;50.956;4.640;2023-04-12T13:20:20;1.42;;;0.70;;
20697;SDS011;10508;50.956;4.640;2023-04-12T13:22:47;4.68;;;0.80;;
20697;SDS011;10508;50.956;4.640;2023-04-12T13:25:13;1.55;;;0.50;;
20697;SDS011;10508;50.956;4.640;2023-04-12T13:27:38;3.30;;;0.50;;
20697;SDS011;10508;50.956;4.640;2023-04-12T13:30:05;5.95;;;0.70;;
20697;SDS011;10508;50.956;4.640;2023-04-12T13:32:31;1.30;;;0.52;;
20697;SDS011;10508;50.956;4.640;2023-04-12T13:34:56;4.65;;;0.70;;
20697;SDS011;10508;50.956;4.640;2023-04-12T13:37:22;2.25;;;1.05;;
20697;SDS011;10508;50.956;4.640;2023-04-12T13:39:49;1.20;;;0.57;;
20697;SDS011;10508;50.956;4.640;2023-04-12T13:42:15;3.28;;;0.70;;
20697;SDS011;10508;50.956;4.640;2023-04-12T13:44:41;2.90;;;0.73;;
20697;SDS011;10508;50.956;4.640;2023-04-12T13:47:07;3.03;;;1.00;;
20697;SDS011;10508;50.956;4.640;2023-04-12T13:49:33;5.70;;;0.90;;
20697;SDS011;10508;50.956;4.640;2023-04-12T13:51:58;3.30;;;0.90;;
20697;SDS011;10508;50.956;4.640;2023-04-12T13:54:26;5.38;;;0.80;;
20697;SDS011;10508;50.956;4.640;2023-04-12T13:56:51;2.80;;;1.13;;
20697;SDS011;10508;50.956;4.640;2023-04-12T13:59:17;6.32;;;0.65;;
20697;SDS011;10508;50.956;4.640;2023-04-12T14:01:42;8.13;;;0.73;;
20697;SDS011;10508;50.956;4.640;2023-04-12T14:04:08;7.47;;;0.73;;
20697;SDS011;10508;50.956;4.640;2023-04-12T14:06:34;12.13;;;1.52;;
20697;SDS011;10508;50.956;4.640;2023-04-12T14:09:00;6.72;;;0.65;;
20697;SDS011;10508;50.956;4.640;2023-04-12T14:11:26;6.65;;;0.70;;
20697;SDS011;10508;50.956;4.640;2023-04-12T14:13:51;5.15;;;0.50;;
20697;SDS011;10508;50.956;4.640;2023-04-12T14:16:18;1.20;;;0.50;;
20697;SDS011;10508;50.956;4.640;2023-04-12T14:18:44;6.45;;;0.57;;
20697;SDS011;10508;50.956;4.640;2023-04-12T14:21:10;6.60;;;0.80;;
20697;SDS011;10508;50.956;4.640;2023-04-12T14:23:36;6.25;;;0.70;;
20697;SDS011;10508;50.956;4.640;2023-04-12T14:26:02;4.65;;;0.43;;
20697;SDS011;10508;50.956;4.640;2023-04-12T14:28:28;2.28;;;0.43;;
20697;SDS011;10508;50.956;4.640;2023-04-12T14:30:55;1.10;;;0.40;;
20697;SDS011;10508;50.956;4.640;2023-04-12T14:33:21;6.18;;;0.68;;
20697;SDS011;10508;50.956;4.640;2023-04-12T14:35:50;15.65;;;1.10;;
20697;SDS011;10508;50.956;4.640;2023-04-12T14:38:18;1.83;;;0.35;;
20697;SDS011;10508;50.956;4.640;2023-04-12T14:40:44;3.33;;;1.17;;
20697;SDS011;10508;50.956;4.640;2023-04-12T14:43:10;7.82;;;0.98;;
20697;SDS011;10508;50.956;4.640;2023-04-12T14:45:36;2.67;;;0.60;;
20697;SDS011;10508;50.956;4.640;2023-04-12T14:48:02;2.33;;;0.75;;
20697;SDS011;10508;50.956;4.640;2023-04-12T14:50:31;5.95;;;0.80;;
20697;SDS011;10508;50.956;4.640;2023-04-12T14:53:00;4.55;;;0.73;;
20697;SDS011;10508;50.956;4.640;2023-04-12T14:55:28;5.28;;;0.68;;
20697;SDS011;10508;50.956;4.640;2023-04-12T14:57:56;1.35;;;0.40;;
20697;SDS011;10508;50.956;4.640;2023-04-12T15:00:23;2.65;;;0.60;;
20697;SDS011;10508;50.956;4.640;2023-04-12T15:02:53;1.50;;;0.35;;
20697;SDS011;10508;50.956;4.640;2023-04-12T15:05:21;5.45;;;0.80;;
20697;SDS011;10508;50.956;4.640;2023-04-12T15:07:49;4.60;;;0.60;;
20697;SDS011;10508;50.956;4.640;2023-04-12T15:10:15;5.50;;;1.05;;
20697;SDS011;10508;50.956;4.640;2023-04-12T15:12:42;3.30;;;0.55;;
20697;SDS011;10508;50.956;4.640;2023-04-12T15:15:08;2.95;;;0.77;;
20697;SDS011;10508;50.956;4.640;2023-04-12T15:17:34;0.88;;;0.50;;
20697;SDS011;10508;50.956;4.640;2023-04-12T15:20:00;2.80;;;0.65;;
20697;SDS011;10508;50.956;4.640;2023-04-12T15:22:36;5.00;;;0.57;;
20697;SDS011;10508;50.956;4.640;2023-04-12T15:25:02;6.45;;;0.65;;
20697;SDS011;10508;50.956;4.640;2023-04-12T15:27:28;4.68;;;0.68;;